Anshun, Guizhou

11:51 AM CST on September 01, 2016 (GMT +0800)
Guiyang | | Change Station

Elev 3734 ft 26.54 °N, 106.80 °E | Updated 51 minutes ago

Mostly Cloudy
Mostly Cloudy
68 °F
Feels Like 68 °F
N
7
Wind Variable Wind from NNE

Today
High -- | Low -- °F
--% Chance of Precip.
Yesterday
High -- | Low -- °F
Precip. -- in
Pressure 29.89 in
Visibility 6.2 miles
Clouds Scattered Clouds 2300 ft
Mostly Cloudy 4300 ft
Dew Point 63 °F
Humidity 83%
Rainfall 0.00 in
Snow Depth Not available.
6:36 AM 7:15 PM
Waning Crescent, 0% visible
METAR ZUGY 010300Z 03003MPS 9999 SCT023 BKN043 20/17 Q1012 NOSIG
Pressure 29.89 in
Visibility 6.2 miles
Clouds Scattered Clouds 2300 ft
Mostly Cloudy 4300 ft
Dew Point 63 °F
Humidity 83%
Rainfall 0.00 in
Snow Depth Not available.
6:36 AM 7:15 PM
Waning Crescent, 0% visible
METAR ZUGY 010300Z 03003MPS 9999 SCT023 BKN043 20/17 Q1012 NOSIG

10-Day Weather Forecast

No radar image for this location.
×

Almanac

Astronomy

Sep. 01, 2016 Rise Set
Actual Time
Civil Twilight
Nautical Twilight
Astronomical Twilight
Moon
Length of Visible Light
Length of Day
Tomorrow will be .
, % of the Moon is Illuminated

Today's Extremes

Country Highs Country Lows

Community

WunderPhotos

Upload Photos

1,936,291 photos uploaded!

WunderBlog® & News

Nearby

Air Quality

  Air Quality AQ Index Pollutant
Not available.

Snow Depth

Station Depth Elevation

Earthquake Activity

City Distance Mag. Time & Date
Minimum magnitude displayed is 2.5.

Coastal Water Temperatures

Place Temperature

Stations

Nearby Weather Stations

Station Location Temp. Windchill Dew Point Humidity Wind Precip. Elev Updated Type